Terminal Aerodrome Forecast
Issued by NWS

Home | Current Version | Previous Version | Text Only | Print | Product List | Glossary On
Versions: 1 2 3 4 5 6 7 8 9 10 11 12 13 14 15 16
000
FTUS41 KRNK 281737
TAFBCB
TAF
KBCB 281737Z 2818/2918 25007KT P6SM SCT045
     FM282000 27005KT P6SM VCTS BKN040CB
     FM290000 VRB03KT P6SM OVC050
     FM290900 28003KT 5SM BR SCT020
     FM291300 29005KT P6SM SCT040=

USA.gov is the U.S. government's official web portal to all federal, state and local government web resources and services.